sensor_id;sensor_type;location;lat;lon;timestamp;temperature;humidity
49238;DHT22;35069;47.906;1.892;2024-03-02T00:00:51;6.70;99.90
49238;DHT22;35069;47.906;1.892;2024-03-02T00:03:23;6.70;99.90
49238;DHT22;35069;47.906;1.892;2024-03-02T00:08:59;6.60;99.90
49238;DHT22;35069;47.906;1.892;2024-03-02T00:11:25;6.60;99.90
49238;DHT22;35069;47.906;1.892;2024-03-02T00:13:53;6.60;99.90
49238;DHT22;35069;47.906;1.892;2024-03-02T00:16:19;6.60;99.90
49238;DHT22;35069;47.906;1.892;2024-03-02T00:18:45;6.60;99.90
49238;DHT22;35069;47.906;1.892;2024-03-02T00:21:31;6.60;99.90
49238;DHT22;35069;47.906;1.892;2024-03-02T00:24:19;6.60;99.90
49238;DHT22;35069;47.906;1.892;2024-03-02T00:27:01;6.60;99.90
49238;DHT22;35069;47.906;1.892;2024-03-02T00:29:43;6.60;99.90
49238;DHT22;35069;47.906;1.892;2024-03-02T00:32:17;6.60;99.90
49238;DHT22;35069;47.906;1.892;2024-03-02T00:35:01;6.60;99.90
49238;DHT22;35069;47.906;1.892;2024-03-02T00:37:47;6.60;99.90
49238;DHT22;35069;47.906;1.892;2024-03-02T00:40:39;6.60;99.90
49238;DHT22;35069;47.906;1.892;2024-03-02T00:50:24;6.50;99.90
49238;DHT22;35069;47.906;1.892;2024-03-02T00:53:11;6.50;99.90
49238;DHT22;35069;47.906;1.892;2024-03-02T00:55:37;6.50;99.90
49238;DHT22;35069;47.906;1.892;2024-03-02T00:58:03;6.50;99.90
49238;DHT22;35069;47.906;1.892;2024-03-02T01:00:29;6.50;99.90
49238;DHT22;35069;47.906;1.892;2024-03-02T01:02:54;6.50;99.90
49238;DHT22;35069;47.906;1.892;2024-03-02T01:05:20;6.50;99.90
49238;DHT22;35069;47.906;1.892;2024-03-02T01:07:46;6.50;99.90
49238;DHT22;35069;47.906;1.892;2024-03-02T01:10:12;6.50;99.90
49238;DHT22;35069;47.906;1.892;2024-03-02T01:12:38;6.50;99.90
49238;DHT22;35069;47.906;1.892;2024-03-02T01:15:04;6.40;99.90
49238;DHT22;35069;47.906;1.892;2024-03-02T01:17:33;6.40;99.90
49238;DHT22;35069;47.906;1.892;2024-03-02T01:19:59;6.40;99.90
49238;DHT22;35069;47.906;1.892;2024-03-02T01:22:24;6.40;99.90
49238;DHT22;35069;47.906;1.892;2024-03-02T01:24:51;6.40;99.90
49238;DHT22;35069;47.906;1.892;2024-03-02T01:27:16;6.40;99.90
49238;DHT22;35069;47.906;1.892;2024-03-02T01:29:42;6.40;99.90
49238;DHT22;35069;47.906;1.892;2024-03-02T01:32:11;6.40;99.90
49238;DHT22;35069;47.906;1.892;2024-03-02T01:34:36;6.40;99.90
49238;DHT22;35069;47.906;1.892;2024-03-02T01:37:02;6.30;99.90
49238;DHT22;35069;47.906;1.892;2024-03-02T01:39:28;6.30;99.90
49238;DHT22;35069;47.906;1.892;2024-03-02T01:41:54;6.30;99.90
49238;DHT22;35069;47.906;1.892;2024-03-02T01:44:19;6.30;99.90
49238;DHT22;35069;47.906;1.892;2024-03-02T01:46:45;6.30;99.90
49238;DHT22;35069;47.906;1.892;2024-03-02T01:49:10;6.30;99.90
49238;DHT22;35069;47.906;1.892;2024-03-02T01:51:36;6.30;99.90
49238;DHT22;35069;47.906;1.892;2024-03-02T01:58:32;6.20;99.90
49238;DHT22;35069;47.906;1.892;2024-03-02T02:01:46;6.20;99.90
49238;DHT22;35069;47.906;1.892;2024-03-02T02:05:33;6.20;99.90
49238;DHT22;35069;47.906;1.892;2024-03-02T02:08:52;6.10;99.90
49238;DHT22;35069;47.906;1.892;2024-03-02T02:11:23;6.20;99.90
49238;DHT22;35069;47.906;1.892;2024-03-02T02:26:54;6.10;99.90
49238;DHT22;35069;47.906;1.892;2024-03-02T02:29:20;6.10;99.90
49238;DHT22;35069;47.906;1.892;2024-03-02T02:32:35;6.10;99.90
49238;DHT22;35069;47.906;1.892;2024-03-02T02:35:43;6.10;99.90
49238;DHT22;35069;47.906;1.892;2024-03-02T02:39:04;6.00;99.90
49238;DHT22;35069;47.906;1.892;2024-03-02T02:44:57;6.00;99.90
49238;DHT22;35069;47.906;1.892;2024-03-02T02:48:10;6.00;99.90
49238;DHT22;35069;47.906;1.892;2024-03-02T02:51:07;6.00;99.90
49238;DHT22;35069;47.906;1.892;2024-03-02T02:57:32;5.90;99.90
49238;DHT22;35069;47.906;1.892;2024-03-02T03:07:49;5.90;99.90
49238;DHT22;35069;47.906;1.892;2024-03-02T03:14:50;5.80;99.90
49238;DHT22;35069;47.906;1.892;2024-03-02T03:18:02;5.80;99.90
49238;DHT22;35069;47.906;1.892;2024-03-02T03:24:02;5.90;99.90
49238;DHT22;35069;47.906;1.892;2024-03-02T03:26:28;5.90;99.90
49238;DHT22;35069;47.906;1.892;2024-03-02T03:28:54;5.90;99.90
49238;DHT22;35069;47.906;1.892;2024-03-02T03:31:19;5.90;99.90
49238;DHT22;35069;47.906;1.892;2024-03-02T03:33:45;5.90;99.90
49238;DHT22;35069;47.906;1.892;2024-03-02T03:36:10;5.90;99.90
49238;DHT22;35069;47.906;1.892;2024-03-02T03:38:36;5.90;99.90
49238;DHT22;35069;47.906;1.892;2024-03-02T03:41:01;5.90;99.90
49238;DHT22;35069;47.906;1.892;2024-03-02T03:43:27;5.90;99.90
49238;DHT22;35069;47.906;1.892;2024-03-02T03:45:53;5.90;99.90
49238;DHT22;35069;47.906;1.892;2024-03-02T03:48:18;5.90;99.90
49238;DHT22;35069;47.906;1.892;2024-03-02T03:50:44;6.00;99.90
49238;DHT22;35069;47.906;1.892;2024-03-02T03:53:10;6.00;99.90
49238;DHT22;35069;47.906;1.892;2024-03-02T03:55:36;6.00;99.90
49238;DHT22;35069;47.906;1.892;2024-03-02T03:58:01;6.00;99.90
49238;DHT22;35069;47.906;1.892;2024-03-02T04:00:27;6.00;99.90
49238;DHT22;35069;47.906;1.892;2024-03-02T04:02:52;6.00;99.90
49238;DHT22;35069;47.906;1.892;2024-03-02T04:05:18;6.10;99.90
49238;DHT22;35069;47.906;1.892;2024-03-02T04:07:43;6.10;99.90
49238;DHT22;35069;47.906;1.892;2024-03-02T04:10:10;6.10;99.90
49238;DHT22;35069;47.906;1.892;2024-03-02T04:12:38;6.10;99.90
49238;DHT22;35069;47.906;1.892;2024-03-02T04:15:05;6.10;99.90
49238;DHT22;35069;47.906;1.892;2024-03-02T04:17:32;6.10;99.90
49238;DHT22;35069;47.906;1.892;2024-03-02T04:19:59;6.20;99.90
49238;DHT22;35069;47.906;1.892;2024-03-02T04:22:25;6.20;99.90
49238;DHT22;35069;47.906;1.892;2024-03-02T04:25:17;6.20;99.90
49238;DHT22;35069;47.906;1.892;2024-03-02T04:28:17;6.40;99.90
49238;DHT22;35069;47.906;1.892;2024-03-02T04:31:08;6.40;99.90
49238;DHT22;35069;47.906;1.892;2024-03-02T04:33:41;6.50;99.90
49238;DHT22;35069;47.906;1.892;2024-03-02T04:37:17;6.60;99.90
49238;DHT22;35069;47.906;1.892;2024-03-02T04:40:02;6.60;99.90
49238;DHT22;35069;47.906;1.892;2024-03-02T04:42:48;6.60;99.90
49238;DHT22;35069;47.906;1.892;2024-03-02T04:46:27;6.60;99.90
49238;DHT22;35069;47.906;1.892;2024-03-02T04:49:24;6.60;99.90
49238;DHT22;35069;47.906;1.892;2024-03-02T04:52:26;6.60;99.90
49238;DHT22;35069;47.906;1.892;2024-03-02T04:58:53;6.60;99.90
49238;DHT22;35069;47.906;1.892;2024-03-02T05:01:45;6.70;99.90
49238;DHT22;35069;47.906;1.892;2024-03-02T05:04:16;6.60;99.90
49238;DHT22;35069;47.906;1.892;2024-03-02T05:06:59;6.70;99.90
49238;DHT22;35069;47.906;1.892;2024-03-02T05:12:19;6.70;99.90
49238;DHT22;35069;47.906;1.892;2024-03-02T05:18:33;6.70;99.90
49238;DHT22;35069;47.906;1.892;2024-03-02T05:21:27;6.80;99.90
49238;DHT22;35069;47.906;1.892;2024-03-02T05:24:16;6.80;99.90
49238;DHT22;35069;47.906;1.892;2024-03-02T05:27:02;6.80;99.90
49238;DHT22;35069;47.906;1.892;2024-03-02T05:29:31;6.90;99.90
49238;DHT22;35069;47.906;1.892;2024-03-02T05:32:00;6.90;99.90
49238;DHT22;35069;47.906;1.892;2024-03-02T05:34:33;6.90;99.90
49238;DHT22;35069;47.906;1.892;2024-03-02T05:37:01;7.00;99.90
49238;DHT22;35069;47.906;1.892;2024-03-02T05:39:27;7.00;99.90
49238;DHT22;35069;47.906;1.892;2024-03-02T05:41:52;7.00;99.90
49238;DHT22;35069;47.906;1.892;2024-03-02T05:44:18;7.10;99.90
49238;DHT22;35069;47.906;1.892;2024-03-02T05:46:44;7.10;99.90
49238;DHT22;35069;47.906;1.892;2024-03-02T05:49:10;7.10;99.90
49238;DHT22;35069;47.906;1.892;2024-03-02T05:51:35;7.10;99.90
49238;DHT22;35069;47.906;1.892;2024-03-02T05:54:01;7.10;99.90
49238;DHT22;35069;47.906;1.892;2024-03-02T05:56:27;7.10;99.90
49238;DHT22;35069;47.906;1.892;2024-03-02T05:58:53;7.10;99.90
49238;DHT22;35069;47.906;1.892;2024-03-02T06:01:33;7.10;99.90
49238;DHT22;35069;47.906;1.892;2024-03-02T06:03:58;7.20;99.90
49238;DHT22;35069;47.906;1.892;2024-03-02T06:06:24;7.20;99.90
49238;DHT22;35069;47.906;1.892;2024-03-02T06:08:50;7.20;99.90
49238;DHT22;35069;47.906;1.892;2024-03-02T06:11:16;7.20;99.90
49238;DHT22;35069;47.906;1.892;2024-03-02T06:13:42;7.20;99.90
49238;DHT22;35069;47.906;1.892;2024-03-02T06:16:07;7.30;99.90
49238;DHT22;35069;47.906;1.892;2024-03-02T06:18:34;7.30;99.90
49238;DHT22;35069;47.906;1.892;2024-03-02T06:21:00;7.30;99.90
49238;DHT22;35069;47.906;1.892;2024-03-02T06:23:26;7.30;99.90
49238;DHT22;35069;47.906;1.892;2024-03-02T06:25:52;7.30;99.90
49238;DHT22;35069;47.906;1.892;2024-03-02T06:28:18;7.30;99.90
49238;DHT22;35069;47.906;1.892;2024-03-02T06:30:44;7.30;99.90
49238;DHT22;35069;47.906;1.892;2024-03-02T06:33:10;7.30;99.90
49238;DHT22;35069;47.906;1.892;2024-03-02T06:35:39;7.30;99.90
49238;DHT22;35069;47.906;1.892;2024-03-02T06:38:04;7.30;99.90
49238;DHT22;35069;47.906;1.892;2024-03-02T06:40:30;7.30;99.90
49238;DHT22;35069;47.906;1.892;2024-03-02T06:42:56;7.30;99.90
49238;DHT22;35069;47.906;1.892;2024-03-02T06:45:21;7.30;99.90
49238;DHT22;35069;47.906;1.892;2024-03-02T06:47:47;7.30;99.90
49238;DHT22;35069;47.906;1.892;2024-03-02T06:50:12;7.30;99.90
49238;DHT22;35069;47.906;1.892;2024-03-02T06:52:38;7.30;99.90
49238;DHT22;35069;47.906;1.892;2024-03-02T06:55:04;7.30;99.90
49238;DHT22;35069;47.906;1.892;2024-03-02T06:57:30;7.20;99.90
49238;DHT22;35069;47.906;1.892;2024-03-02T06:59:55;7.20;99.90
49238;DHT22;35069;47.906;1.892;2024-03-02T07:02:24;7.20;99.90
49238;DHT22;35069;47.906;1.892;2024-03-02T07:04:52;7.20;99.90
49238;DHT22;35069;47.906;1.892;2024-03-02T07:07:18;7.20;99.90
49238;DHT22;35069;47.906;1.892;2024-03-02T07:09:43;7.20;99.90
49238;DHT22;35069;47.906;1.892;2024-03-02T07:12:09;7.20;99.90
49238;DHT22;35069;47.906;1.892;2024-03-02T07:14:35;7.20;99.90
49238;DHT22;35069;47.906;1.892;2024-03-02T07:17:22;7.20;99.90
49238;DHT22;35069;47.906;1.892;2024-03-02T07:19:47;7.20;99.90
49238;DHT22;35069;47.906;1.892;2024-03-02T07:22:13;7.30;99.90
49238;DHT22;35069;47.906;1.892;2024-03-02T07:24:40;7.30;99.90
49238;DHT22;35069;47.906;1.892;2024-03-02T07:27:06;7.30;99.90
49238;DHT22;35069;47.906;1.892;2024-03-02T07:29:32;7.40;99.90
49238;DHT22;35069;47.906;1.892;2024-03-02T07:31:57;7.50;99.90
49238;DHT22;35069;47.906;1.892;2024-03-02T07:34:23;7.50;99.90
49238;DHT22;35069;47.906;1.892;2024-03-02T07:36:52;7.50;99.90
49238;DHT22;35069;47.906;1.892;2024-03-02T07:39:18;7.50;99.90
49238;DHT22;35069;47.906;1.892;2024-03-02T07:41:45;7.60;99.90
49238;DHT22;35069;47.906;1.892;2024-03-02T07:44:11;7.60;99.90
49238;DHT22;35069;47.906;1.892;2024-03-02T07:46:43;7.60;99.90
49238;DHT22;35069;47.906;1.892;2024-03-02T07:49:09;7.60;99.90
49238;DHT22;35069;47.906;1.892;2024-03-02T07:51:35;7.60;99.90
49238;DHT22;35069;47.906;1.892;2024-03-02T07:54:01;7.60;99.90
49238;DHT22;35069;47.906;1.892;2024-03-02T07:56:27;7.50;99.90
49238;DHT22;35069;47.906;1.892;2024-03-02T07:58:54;7.50;99.90
49238;DHT22;35069;47.906;1.892;2024-03-02T08:01:20;7.60;99.90
49238;DHT22;35069;47.906;1.892;2024-03-02T08:03:45;7.60;99.90
49238;DHT22;35069;47.906;1.892;2024-03-02T08:06:16;7.60;99.90
49238;DHT22;35069;47.906;1.892;2024-03-02T08:08:41;7.60;99.90
49238;DHT22;35069;47.906;1.892;2024-03-02T08:11:07;7.50;99.90
49238;DHT22;35069;47.906;1.892;2024-03-02T08:13:32;7.60;99.90
49238;DHT22;35069;47.906;1.892;2024-03-02T08:15:58;7.60;99.90
49238;DHT22;35069;47.906;1.892;2024-03-02T08:18:24;7.70;99.90
49238;DHT22;35069;47.906;1.892;2024-03-02T08:20:50;7.70;99.90
49238;DHT22;35069;47.906;1.892;2024-03-02T08:23:15;7.70;99.90
49238;DHT22;35069;47.906;1.892;2024-03-02T08:25:42;7.70;99.90
49238;DHT22;35069;47.906;1.892;2024-03-02T08:28:07;7.70;99.90
49238;DHT22;35069;47.906;1.892;2024-03-02T08:30:33;7.80;99.90
49238;DHT22;35069;47.906;1.892;2024-03-02T08:32:59;7.80;99.90
49238;DHT22;35069;47.906;1.892;2024-03-02T08:35:25;7.80;99.90
49238;DHT22;35069;47.906;1.892;2024-03-02T08:37:50;7.90;99.90
49238;DHT22;35069;47.906;1.892;2024-03-02T08:40:16;7.90;99.90
49238;DHT22;35069;47.906;1.892;2024-03-02T08:42:42;7.80;99.90
49238;DHT22;35069;47.906;1.892;2024-03-02T08:45:07;7.90;99.90
49238;DHT22;35069;47.906;1.892;2024-03-02T08:47:33;7.90;99.90
49238;DHT22;35069;47.906;1.892;2024-03-02T08:50:00;7.80;99.90
49238;DHT22;35069;47.906;1.892;2024-03-02T08:52:26;7.80;99.90
49238;DHT22;35069;47.906;1.892;2024-03-02T08:54:52;7.90;99.90
49238;DHT22;35069;47.906;1.892;2024-03-02T08:57:17;7.80;99.90
49238;DHT22;35069;47.906;1.892;2024-03-02T08:59:43;7.90;99.90
49238;DHT22;35069;47.906;1.892;2024-03-02T09:02:09;7.90;99.90
49238;DHT22;35069;47.906;1.892;2024-03-02T09:04:35;7.90;99.90
49238;DHT22;35069;47.906;1.892;2024-03-02T09:07:01;7.90;99.90
49238;DHT22;35069;47.906;1.892;2024-03-02T09:09:26;8.00;99.90
49238;DHT22;35069;47.906;1.892;2024-03-02T09:11:52;8.00;99.90
49238;DHT22;35069;47.906;1.892;2024-03-02T09:14:20;8.00;99.90
49238;DHT22;35069;47.906;1.892;2024-03-02T09:16:46;8.10;99.90
49238;DHT22;35069;47.906;1.892;2024-03-02T09:19:12;8.10;99.90
49238;DHT22;35069;47.906;1.892;2024-03-02T09:21:37;8.20;99.90
49238;DHT22;35069;47.906;1.892;2024-03-02T09:24:03;8.30;99.90
49238;DHT22;35069;47.906;1.892;2024-03-02T09:26:29;8.40;99.90
49238;DHT22;35069;47.906;1.892;2024-03-02T09:28:55;8.40;99.90
49238;DHT22;35069;47.906;1.892;2024-03-02T09:31:20;8.50;99.90
49238;DHT22;35069;47.906;1.892;2024-03-02T09:33:46;8.40;99.90
49238;DHT22;35069;47.906;1.892;2024-03-02T09:36:22;8.40;99.90
49238;DHT22;35069;47.906;1.892;2024-03-02T09:38:48;8.40;99.90
49238;DHT22;35069;47.906;1.892;2024-03-02T09:41:14;8.40;99.90
49238;DHT22;35069;47.906;1.892;2024-03-02T09:43:40;8.40;99.90
49238;DHT22;35069;47.906;1.892;2024-03-02T09:46:10;8.40;99.90
49238;DHT22;35069;47.906;1.892;2024-03-02T09:48:36;8.40;99.90
49238;DHT22;35069;47.906;1.892;2024-03-02T09:51:01;8.40;99.90
49238;DHT22;35069;47.906;1.892;2024-03-02T09:53:33;8.40;99.90
49238;DHT22;35069;47.906;1.892;2024-03-02T09:56:02;8.30;99.90
49238;DHT22;35069;47.906;1.892;2024-03-02T09:58:28;8.30;99.90
49238;DHT22;35069;47.906;1.892;2024-03-02T10:00:54;8.30;99.90
49238;DHT22;35069;47.906;1.892;2024-03-02T10:03:19;8.30;99.90
49238;DHT22;35069;47.906;1.892;2024-03-02T10:05:46;8.20;99.90
49238;DHT22;35069;47.906;1.892;2024-03-02T10:08:12;8.20;99.90
49238;DHT22;35069;47.906;1.892;2024-03-02T10:10:39;8.20;99.90
49238;DHT22;35069;47.906;1.892;2024-03-02T10:13:12;8.20;99.90
49238;DHT22;35069;47.906;1.892;2024-03-02T10:15:39;8.10;99.90
49238;DHT22;35069;47.906;1.892;2024-03-02T10:18:12;8.10;99.90
49238;DHT22;35069;47.906;1.892;2024-03-02T10:20:38;8.10;99.90
49238;DHT22;35069;47.906;1.892;2024-03-02T10:23:15;8.10;99.90
49238;DHT22;35069;47.906;1.892;2024-03-02T10:25:42;8.10;99.90
49238;DHT22;35069;47.906;1.892;2024-03-02T10:28:07;8.10;99.90
49238;DHT22;35069;47.906;1.892;2024-03-02T10:30:34;8.10;99.90
49238;DHT22;35069;47.906;1.892;2024-03-02T10:33:05;8.10;99.90
49238;DHT22;35069;47.906;1.892;2024-03-02T10:35:30;8.10;99.90
49238;DHT22;35069;47.906;1.892;2024-03-02T10:37:59;8.20;99.90
49238;DHT22;35069;47.906;1.892;2024-03-02T10:40:26;8.20;99.90
49238;DHT22;35069;47.906;1.892;2024-03-02T10:42:52;8.30;99.90
49238;DHT22;35069;47.906;1.892;2024-03-02T10:45:19;8.30;99.90
49238;DHT22;35069;47.906;1.892;2024-03-02T10:47:47;8.40;99.90
49238;DHT22;35069;47.906;1.892;2024-03-02T10:50:13;8.40;99.90
49238;DHT22;35069;47.906;1.892;2024-03-02T10:52:39;8.40;99.90
49238;DHT22;35069;47.906;1.892;2024-03-02T10:55:05;8.50;99.90
49238;DHT22;35069;47.906;1.892;2024-03-02T10:57:53;8.50;99.90
49238;DHT22;35069;47.906;1.892;2024-03-02T11:00:20;8.50;99.90
49238;DHT22;35069;47.906;1.892;2024-03-02T11:02:56;8.60;99.90
49238;DHT22;35069;47.906;1.892;2024-03-02T11:05:30;8.70;99.90
49238;DHT22;35069;47.906;1.892;2024-03-02T11:08:08;8.80;99.90
49238;DHT22;35069;47.906;1.892;2024-03-02T11:10:41;8.90;99.90
49238;DHT22;35069;47.906;1.892;2024-03-02T11:13:09;9.00;99.90
49238;DHT22;35069;47.906;1.892;2024-03-02T11:15:35;9.00;99.90
49238;DHT22;35069;47.906;1.892;2024-03-02T11:18:05;9.00;99.90
49238;DHT22;35069;47.906;1.892;2024-03-02T11:20:38;9.00;99.90
49238;DHT22;35069;47.906;1.892;2024-03-02T11:23:05;8.90;99.90
49238;DHT22;35069;47.906;1.892;2024-03-02T11:25:32;8.80;99.90
49238;DHT22;35069;47.906;1.892;2024-03-02T11:28:15;8.80;99.90
49238;DHT22;35069;47.906;1.892;2024-03-02T11:33:07;8.80;99.90
49238;DHT22;35069;47.906;1.892;2024-03-02T11:35:51;8.70;99.90
49238;DHT22;35069;47.906;1.892;2024-03-02T11:38:18;8.70;99.90
49238;DHT22;35069;47.906;1.892;2024-03-02T11:40:44;8.70;99.90
49238;DHT22;35069;47.906;1.892;2024-03-02T11:43:11;8.70;99.90
49238;DHT22;35069;47.906;1.892;2024-03-02T11:45:37;8.80;99.90
49238;DHT22;35069;47.906;1.892;2024-03-02T11:48:08;8.80;99.90
49238;DHT22;35069;47.906;1.892;2024-03-02T11:50:42;8.80;99.90
49238;DHT22;35069;47.906;1.892;2024-03-02T11:53:11;9.00;99.90
49238;DHT22;35069;47.906;1.892;2024-03-02T11:55:38;9.20;99.90
49238;DHT22;35069;47.906;1.892;2024-03-02T11:58:11;9.30;99.90
49238;DHT22;35069;47.906;1.892;2024-03-02T12:00:37;9.30;99.90
49238;DHT22;35069;47.906;1.892;2024-03-02T12:03:07;9.30;99.90
49238;DHT22;35069;47.906;1.892;2024-03-02T12:05:33;9.40;99.90
49238;DHT22;35069;47.906;1.892;2024-03-02T12:08:05;9.40;99.90
49238;DHT22;35069;47.906;1.892;2024-03-02T12:10:32;9.50;99.90
49238;DHT22;35069;47.906;1.892;2024-03-02T12:13:02;9.70;99.90
49238;DHT22;35069;47.906;1.892;2024-03-02T12:15:30;10.00;99.90
49238;DHT22;35069;47.906;1.892;2024-03-02T12:17:57;10.10;99.90
49238;DHT22;35069;47.906;1.892;2024-03-02T12:20:24;10.00;99.90
49238;DHT22;35069;47.906;1.892;2024-03-02T12:22:51;10.00;99.90
49238;DHT22;35069;47.906;1.892;2024-03-02T12:25:18;10.00;99.90
49238;DHT22;35069;47.906;1.892;2024-03-02T12:27:45;10.20;99.90
49238;DHT22;35069;47.906;1.892;2024-03-02T12:30:11;10.10;99.90
49238;DHT22;35069;47.906;1.892;2024-03-02T12:32:40;10.00;99.90
49238;DHT22;35069;47.906;1.892;2024-03-02T12:35:05;9.90;99.90
49238;DHT22;35069;47.906;1.892;2024-03-02T12:37:31;9.90;99.90
49238;DHT22;35069;47.906;1.892;2024-03-02T12:39:57;9.80;99.90
49238;DHT22;35069;47.906;1.892;2024-03-02T12:42:24;9.80;99.90
49238;DHT22;35069;47.906;1.892;2024-03-02T12:44:52;9.70;99.90
49238;DHT22;35069;47.906;1.892;2024-03-02T12:47:20;9.70;99.90
49238;DHT22;35069;47.906;1.892;2024-03-02T12:49:45;9.70;99.90
49238;DHT22;35069;47.906;1.892;2024-03-02T12:52:13;9.60;99.90
49238;DHT22;35069;47.906;1.892;2024-03-02T12:54:38;9.70;99.90
49238;DHT22;35069;47.906;1.892;2024-03-02T12:57:04;9.50;99.90
49238;DHT22;35069;47.906;1.892;2024-03-02T12:59:30;9.50;99.90
49238;DHT22;35069;47.906;1.892;2024-03-02T13:01:56;9.40;99.90
49238;DHT22;35069;47.906;1.892;2024-03-02T13:04:27;9.30;99.90
49238;DHT22;35069;47.906;1.892;2024-03-02T13:06:56;9.30;99.90
49238;DHT22;35069;47.906;1.892;2024-03-02T13:09:23;9.30;99.90
49238;DHT22;35069;47.906;1.892;2024-03-02T13:11:49;9.30;99.90
49238;DHT22;35069;47.906;1.892;2024-03-02T13:14:14;9.40;99.90
49238;DHT22;35069;47.906;1.892;2024-03-02T13:16:41;9.40;99.90
49238;DHT22;35069;47.906;1.892;2024-03-02T13:19:08;9.50;99.90
49238;DHT22;35069;47.906;1.892;2024-03-02T13:21:33;9.50;99.90
49238;DHT22;35069;47.906;1.892;2024-03-02T13:23:59;9.50;99.90
49238;DHT22;35069;47.906;1.892;2024-03-02T13:26:25;9.50;99.90
49238;DHT22;35069;47.906;1.892;2024-03-02T13:28:51;9.50;99.90
49238;DHT22;35069;47.906;1.892;2024-03-02T13:31:16;9.40;99.90
49238;DHT22;35069;47.906;1.892;2024-03-02T13:33:42;9.40;99.90
49238;DHT22;35069;47.906;1.892;2024-03-02T13:36:08;9.40;99.90
49238;DHT22;35069;47.906;1.892;2024-03-02T13:38:33;9.40;99.90
49238;DHT22;35069;47.906;1.892;2024-03-02T13:40:59;9.50;99.90
49238;DHT22;35069;47.906;1.892;2024-03-02T13:43:26;9.50;99.90
49238;DHT22;35069;47.906;1.892;2024-03-02T13:45:52;9.40;99.90
49238;DHT22;35069;47.906;1.892;2024-03-02T13:48:19;9.40;99.90
49238;DHT22;35069;47.906;1.892;2024-03-02T13:50:44;9.30;99.90
49238;DHT22;35069;47.906;1.892;2024-03-02T13:53:11;9.30;99.90
49238;DHT22;35069;47.906;1.892;2024-03-02T13:55:37;9.30;99.90
49238;DHT22;35069;47.906;1.892;2024-03-02T13:58:03;9.30;99.90
49238;DHT22;35069;47.906;1.892;2024-03-02T14:00:29;9.30;99.90
49238;DHT22;35069;47.906;1.892;2024-03-02T14:02:55;9.30;99.90
49238;DHT22;35069;47.906;1.892;2024-03-02T14:05:21;9.40;99.90
49238;DHT22;35069;47.906;1.892;2024-03-02T14:07:47;9.40;99.90
49238;DHT22;35069;47.906;1.892;2024-03-02T14:10:12;9.40;99.90
49238;DHT22;35069;47.906;1.892;2024-03-02T14:12:38;9.50;99.90
49238;DHT22;35069;47.906;1.892;2024-03-02T14:15:04;9.50;99.90
49238;DHT22;35069;47.906;1.892;2024-03-02T14:17:30;9.50;99.90
49238;DHT22;35069;47.906;1.892;2024-03-02T14:19:57;9.40;99.90
49238;DHT22;35069;47.906;1.892;2024-03-02T14:22:24;9.40;99.90
49238;DHT22;35069;47.906;1.892;2024-03-02T14:24:50;9.40;99.90
49238;DHT22;35069;47.906;1.892;2024-03-02T14:27:16;9.30;99.90
49238;DHT22;35069;47.906;1.892;2024-03-02T14:29:42;9.30;99.90
49238;DHT22;35069;47.906;1.892;2024-03-02T14:32:08;9.40;99.90
49238;DHT22;35069;47.906;1.892;2024-03-02T14:34:34;9.40;99.90
49238;DHT22;35069;47.906;1.892;2024-03-02T14:37:00;9.50;99.90
49238;DHT22;35069;47.906;1.892;2024-03-02T14:39:26;9.50;99.90
49238;DHT22;35069;47.906;1.892;2024-03-02T14:41:52;9.50;99.90
49238;DHT22;35069;47.906;1.892;2024-03-02T14:44:17;9.50;99.90
49238;DHT22;35069;47.906;1.892;2024-03-02T14:46:43;9.50;99.90
49238;DHT22;35069;47.906;1.892;2024-03-02T14:49:12;9.50;99.90
49238;DHT22;35069;47.906;1.892;2024-03-02T14:51:37;9.50;99.90
49238;DHT22;35069;47.906;1.892;2024-03-02T14:54:03;9.50;99.90
49238;DHT22;35069;47.906;1.892;2024-03-02T14:56:29;9.50;99.90
49238;DHT22;35069;47.906;1.892;2024-03-02T14:58:55;9.50;99.90
49238;DHT22;35069;47.906;1.892;2024-03-02T15:01:20;9.60;99.90
49238;DHT22;35069;47.906;1.892;2024-03-02T15:03:48;9.60;99.90
49238;DHT22;35069;47.906;1.892;2024-03-02T15:06:14;9.50;99.90
49238;DHT22;35069;47.906;1.892;2024-03-02T15:08:40;9.20;99.90
49238;DHT22;35069;47.906;1.892;2024-03-02T15:11:08;8.90;99.90
49238;DHT22;35069;47.906;1.892;2024-03-02T15:13:34;8.70;99.90
49238;DHT22;35069;47.906;1.892;2024-03-02T15:15:59;8.40;99.90
49238;DHT22;35069;47.906;1.892;2024-03-02T15:18:25;8.10;99.90
49238;DHT22;35069;47.906;1.892;2024-03-02T15:20:51;8.00;99.90
49238;DHT22;35069;47.906;1.892;2024-03-02T15:23:16;7.90;99.90
49238;DHT22;35069;47.906;1.892;2024-03-02T15:25:42;7.80;99.90
49238;DHT22;35069;47.906;1.892;2024-03-02T15:28:08;7.90;99.90
49238;DHT22;35069;47.906;1.892;2024-03-02T15:30:33;7.80;99.90
49238;DHT22;35069;47.906;1.892;2024-03-02T15:32:59;7.80;99.90
49238;DHT22;35069;47.906;1.892;2024-03-02T15:35:25;7.80;99.90
49238;DHT22;35069;47.906;1.892;2024-03-02T15:37:51;7.80;99.90
49238;DHT22;35069;47.906;1.892;2024-03-02T15:40:16;7.80;99.90
49238;DHT22;35069;47.906;1.892;2024-03-02T15:42:42;7.80;99.90
49238;DHT22;35069;47.906;1.892;2024-03-02T15:45:08;7.80;99.90
49238;DHT22;35069;47.906;1.892;2024-03-02T15:47:34;7.70;99.90
49238;DHT22;35069;47.906;1.892;2024-03-02T15:50:01;7.70;99.90
49238;DHT22;35069;47.906;1.892;2024-03-02T15:52:27;7.70;99.90
49238;DHT22;35069;47.906;1.892;2024-03-02T15:54:53;7.60;99.90
49238;DHT22;35069;47.906;1.892;2024-03-02T15:57:19;7.60;99.90
49238;DHT22;35069;47.906;1.892;2024-03-02T15:59:46;7.60;99.90
49238;DHT22;35069;47.906;1.892;2024-03-02T16:02:11;7.60;99.90
49238;DHT22;35069;47.906;1.892;2024-03-02T16:04:37;7.50;99.90
49238;DHT22;35069;47.906;1.892;2024-03-02T16:07:03;7.60;99.90
49238;DHT22;35069;47.906;1.892;2024-03-02T16:09:28;7.60;99.90
49238;DHT22;35069;47.906;1.892;2024-03-02T16:11:54;7.60;99.90
49238;DHT22;35069;47.906;1.892;2024-03-02T16:14:20;7.60;99.90
49238;DHT22;35069;47.906;1.892;2024-03-02T16:16:45;7.50;99.90
49238;DHT22;35069;47.906;1.892;2024-03-02T16:19:11;7.50;99.90
49238;DHT22;35069;47.906;1.892;2024-03-02T16:21:37;7.40;99.90
49238;DHT22;35069;47.906;1.892;2024-03-02T16:24:03;7.40;99.90
49238;DHT22;35069;47.906;1.892;2024-03-02T16:26:28;7.50;99.90
49238;DHT22;35069;47.906;1.892;2024-03-02T16:28:54;7.50;99.90
49238;DHT22;35069;47.906;1.892;2024-03-02T16:31:20;7.50;99.90
49238;DHT22;35069;47.906;1.892;2024-03-02T16:33:45;7.40;99.90
49238;DHT22;35069;47.906;1.892;2024-03-02T16:36:11;7.40;99.90
49238;DHT22;35069;47.906;1.892;2024-03-02T16:38:37;7.40;99.90
49238;DHT22;35069;47.906;1.892;2024-03-02T16:41:03;7.40;99.90
49238;DHT22;35069;47.906;1.892;2024-03-02T16:43:29;7.30;99.90
49238;DHT22;35069;47.906;1.892;2024-03-02T16:45:55;7.20;99.90
49238;DHT22;35069;47.906;1.892;2024-03-02T16:48:21;7.20;99.90
49238;DHT22;35069;47.906;1.892;2024-03-02T16:50:47;7.20;99.90
49238;DHT22;35069;47.906;1.892;2024-03-02T16:53:13;7.20;99.90
49238;DHT22;35069;47.906;1.892;2024-03-02T16:55:41;7.30;99.90
49238;DHT22;35069;47.906;1.892;2024-03-02T16:58:07;7.30;99.90
49238;DHT22;35069;47.906;1.892;2024-03-02T17:00:32;7.30;99.90
49238;DHT22;35069;47.906;1.892;2024-03-02T17:02:58;7.30;99.90